N928CJ KPHX-KSAN
Flight info
| Callsign | N928CJ |
|---|---|
| Flight time | 0h 54m |
| Altitude | 43000 |
| Route | FYRBD1 MOHAK J2 HOGGZ LUCKI1 |
| Aircraft | C700/M-SBDGHM1RWXY/LB2 |
Departure
| Time | 2026-04-26 03:23 |
|---|---|
| Airport | Phoenix Sky Harbor International Airport (KPHX) |
Arrival
| Time | 2026-04-26 04:17 |
|---|---|
| Airport | San Diego International Airport (KSAN) |
| Time | Latitude | Longitude | Altitude | Speed | Heading |
|---|---|---|---|---|---|
| 2026-04-26 03:07 | 33.43787 | -111.99727 | 1119 ft | 0 kts | 90° |
| 2026-04-26 03:15 | 33.43787 | -111.99730 | 1125 ft | 3 kts | 89° |
| 2026-04-26 03:16 | 33.43784 | -111.99761 | 1125 ft | 4 kts | 66° |
| 2026-04-26 03:16 | 33.43769 | -111.99782 | 1122 ft | 4 kts | 10° |
| 2026-04-26 03:16 | 33.43758 | -111.99783 | 1113 ft | 1 kts | 0° |
| 2026-04-26 03:18 | 33.43759 | -111.99783 | 1121 ft | 0 kts | 0° |
| 2026-04-26 03:19 | 33.43760 | -111.99783 | 1121 ft | 2 kts | 0° |
| 2026-04-26 03:19 | 33.43840 | -111.99784 | 1125 ft | 17 kts | 359° |
| 2026-04-26 03:19 | 33.43902 | -111.99734 | 1126 ft | 12 kts | 81° |
| 2026-04-26 03:19 | 33.43905 | -111.99621 | 1126 ft | 16 kts | 89° |
| 2026-04-26 03:20 | 33.43906 | -111.99475 | 1126 ft | 20 kts | 90° |
| 2026-04-26 03:20 | 33.43904 | -111.99369 | 1126 ft | 0 kts | 91° |
| 2026-04-26 03:20 | 33.43904 | -111.99352 | 1126 ft | 7 kts | 91° |
| 2026-04-26 03:20 | 33.43895 | -111.99254 | 1126 ft | 16 kts | 118° |
| 2026-04-26 03:21 | 33.43777 | -111.99229 | 1122 ft | 20 kts | 179° |
| 2026-04-26 03:21 | 33.43625 | -111.99230 | 1123 ft | 23 kts | 180° |
| 2026-04-26 03:21 | 33.43452 | -111.99230 | 1125 ft | 26 kts | 180° |
| 2026-04-26 03:21 | 33.43276 | -111.99231 | 1116 ft | 16 kts | 181° |
| 2026-04-26 03:22 | 33.43179 | -111.99300 | 1125 ft | 18 kts | 224° |
| 2026-04-26 03:22 | 33.43165 | -111.99316 | 1126 ft | 0 kts | 222° |
| 2026-04-26 03:22 | 33.43163 | -111.99318 | 1130 ft | 4 kts | 222° |
| 2026-04-26 03:22 | 33.43105 | -111.99398 | 1130 ft | 21 kts | 251° |
| 2026-04-26 03:23 | 33.43103 | -111.99497 | 1129 ft | 15 kts | 270° |
| 2026-04-26 03:23 | 33.43105 | -112.00082 | 1129 ft | 125 kts | 269° |
| 2026-04-26 03:23 | 33.43098 | -112.01434 | 1664 ft | 188 kts | 270° |
| 2026-04-26 03:23 | 33.43095 | -112.03151 | 2467 ft | 220 kts | 271° |
| 2026-04-26 03:24 | 33.43191 | -112.04979 | 3763 ft | 217 kts | 274° |
| 2026-04-26 03:24 | 33.43133 | -112.06864 | 4695 ft | 238 kts | 262° |
| 2026-04-26 03:24 | 33.42658 | -112.08700 | 6253 ft | 219 kts | 238° |
| 2026-04-26 03:24 | 33.41849 | -112.10222 | 7759 ft | 222 kts | 237° |
| 2026-04-26 03:25 | 33.41146 | -112.11854 | 7987 ft | 219 kts | 246° |
| 2026-04-26 03:25 | 33.40568 | -112.13499 | 7989 ft | 214 kts | 238° |
| 2026-04-26 03:25 | 33.39573 | -112.15039 | 8487 ft | 252 kts | 225° |
| 2026-04-26 03:25 | 33.38149 | -112.16326 | 10103 ft | 259 kts | 211° |
| 2026-04-26 03:26 | 33.36393 | -112.17148 | 11464 ft | 288 kts | 195° |
| 2026-04-26 03:26 | 33.34343 | -112.17246 | 13143 ft | 301 kts | 179° |
| 2026-04-26 03:26 | 33.32259 | -112.16663 | 14787 ft | 314 kts | 170° |
| 2026-04-26 03:26 | 33.30132 | -112.15898 | 16307 ft | 324 kts | 170° |
| 2026-04-26 03:27 | 33.27934 | -112.15233 | 17785 ft | 326 kts | 181° |
| 2026-04-26 03:27 | 33.25743 | -112.15455 | 19118 ft | 319 kts | 200° |
| 2026-04-26 03:27 | 33.23747 | -112.16529 | 20418 ft | 314 kts | 218° |
| 2026-04-26 03:27 | 33.22105 | -112.18354 | 20850 ft | 340 kts | 235° |
| 2026-04-26 03:28 | 33.21107 | -112.20999 | 20781 ft | 361 kts | 254° |
| 2026-04-26 03:28 | 33.20979 | -112.24065 | 20780 ft | 380 kts | 271° |
| 2026-04-26 03:28 | 33.20957 | -112.27198 | 20756 ft | 376 kts | 257° |
| 2026-04-26 03:28 | 33.19900 | -112.30009 | 20769 ft | 372 kts | 237° |
| 2026-04-26 03:29 | 33.18341 | -112.32474 | 20773 ft | 373 kts | 233° |
| 2026-04-26 03:29 | 33.16690 | -112.34880 | 20755 ft | 376 kts | 232° |
| 2026-04-26 03:29 | 33.15083 | -112.37322 | 20758 ft | 372 kts | 234° |
| 2026-04-26 03:29 | 33.13563 | -112.39740 | 21318 ft | 362 kts | 234° |
| 2026-04-26 03:30 | 33.12097 | -112.42031 | 23580 ft | 333 kts | 234° |
| 2026-04-26 03:30 | 33.10720 | -112.44140 | 25422 ft | 319 kts | 234° |
| 2026-04-26 03:30 | 33.09349 | -112.46259 | 26392 ft | 326 kts | 234° |
| 2026-04-26 03:30 | 33.07962 | -112.48411 | 27426 ft | 329 kts | 234° |
| 2026-04-26 03:31 | 33.06558 | -112.50583 | 28436 ft | 332 kts | 234° |
| 2026-04-26 03:31 | 33.05136 | -112.52774 | 29451 ft | 337 kts | 234° |
| 2026-04-26 03:31 | 33.03696 | -112.54996 | 30389 ft | 340 kts | 234° |
| 2026-04-26 03:31 | 33.02244 | -112.57237 | 31261 ft | 343 kts | 234° |
| 2026-04-26 03:32 | 33.00800 | -112.59461 | 32090 ft | 345 kts | 234° |
| 2026-04-26 03:32 | 32.99332 | -112.61737 | 32908 ft | 347 kts | 235° |
| 2026-04-26 03:32 | 32.97999 | -112.64141 | 33699 ft | 349 kts | 240° |
| 2026-04-26 03:32 | 32.96848 | -112.66698 | 34348 ft | 352 kts | 244° |
| 2026-04-26 03:33 | 32.95889 | -112.69397 | 34920 ft | 357 kts | 248° |
| 2026-04-26 03:33 | 32.95135 | -112.72230 | 35474 ft | 361 kts | 252° |
| 2026-04-26 03:33 | 32.94610 | -112.75150 | 36210 ft | 361 kts | 256° |
| 2026-04-26 03:33 | 32.94211 | -112.78091 | 36913 ft | 359 kts | 257° |
| 2026-04-26 03:34 | 32.93822 | -112.81022 | 37563 ft | 358 kts | 257° |
| 2026-04-26 03:34 | 32.93431 | -112.83898 | 38167 ft | 356 kts | 257° |
| 2026-04-26 03:34 | 32.93035 | -112.86804 | 38695 ft | 355 kts | 257° |
| 2026-04-26 03:34 | 32.92642 | -112.89704 | 39100 ft | 355 kts | 257° |
| 2026-04-26 03:35 | 32.92250 | -112.92604 | 39479 ft | 355 kts | 257° |
| 2026-04-26 03:35 | 32.91855 | -112.95506 | 39844 ft | 355 kts | 257° |
| 2026-04-26 03:35 | 32.91460 | -112.98410 | 40198 ft | 355 kts | 257° |
| 2026-04-26 03:35 | 32.91063 | -113.01314 | 40542 ft | 356 kts | 257° |
| 2026-04-26 03:36 | 32.90667 | -113.04216 | 40877 ft | 356 kts | 257° |
| 2026-04-26 03:36 | 32.90274 | -113.07083 | 41194 ft | 356 kts | 257° |
| 2026-04-26 03:36 | 32.89875 | -113.09990 | 41518 ft | 356 kts | 257° |
| 2026-04-26 03:36 | 32.89476 | -113.12899 | 41812 ft | 357 kts | 257° |
| 2026-04-26 03:37 | 32.89073 | -113.15818 | 42076 ft | 358 kts | 257° |
| 2026-04-26 03:37 | 32.88671 | -113.18736 | 42374 ft | 358 kts | 257° |
| 2026-04-26 03:37 | 32.88267 | -113.21660 | 42660 ft | 358 kts | 258° |
| 2026-04-26 03:37 | 32.87861 | -113.24592 | 42749 ft | 362 kts | 258° |
| 2026-04-26 03:38 | 32.87032 | -113.30560 | 42760 ft | 374 kts | 258° |
| 2026-04-26 03:38 | 32.86172 | -113.36745 | 42767 ft | 382 kts | 258° |
| 2026-04-26 03:39 | 32.85306 | -113.42947 | 42761 ft | 378 kts | 258° |
| 2026-04-26 03:39 | 32.84446 | -113.49071 | 42755 ft | 375 kts | 257° |
| 2026-04-26 03:40 | 32.83580 | -113.55212 | 42765 ft | 379 kts | 257° |
| 2026-04-26 03:40 | 32.82710 | -113.61372 | 42764 ft | 381 kts | 257° |
| 2026-04-26 03:41 | 32.81832 | -113.67562 | 42768 ft | 378 kts | 257° |
| 2026-04-26 03:41 | 32.80958 | -113.73702 | 42765 ft | 376 kts | 257° |
| 2026-04-26 03:42 | 32.80082 | -113.79835 | 42776 ft | 379 kts | 257° |
| 2026-04-26 03:42 | 32.79190 | -113.86064 | 42779 ft | 383 kts | 257° |
| 2026-04-26 03:43 | 32.78305 | -113.92224 | 42785 ft | 379 kts | 257° |
| 2026-04-26 03:43 | 32.77601 | -113.98413 | 42780 ft | 380 kts | 262° |
| 2026-04-26 03:44 | 32.77518 | -114.04741 | 42793 ft | 385 kts | 264° |
| 2026-04-26 03:44 | 32.77671 | -114.11142 | 42784 ft | 391 kts | 267° |
| 2026-04-26 03:45 | 32.77914 | -114.17610 | 42794 ft | 392 kts | 267° |
| 2026-04-26 03:45 | 32.78179 | -114.24052 | 42791 ft | 389 kts | 267° |
| 2026-04-26 03:46 | 32.78424 | -114.30409 | 42843 ft | 388 kts | 267° |
| 2026-04-26 03:47 | 32.79284 | -114.40123 | 42797 ft | 401 kts | 276° |
| 2026-04-26 03:47 | 32.80931 | -114.46525 | 42372 ft | 405 kts | 281° |
| 2026-04-26 03:47 | 32.81799 | -114.49673 | 41843 ft | 396 kts | 280° |
| 2026-04-26 03:48 | 32.82641 | -114.52747 | 41328 ft | 386 kts | 280° |
| 2026-04-26 03:48 | 32.83462 | -114.55742 | 40817 ft | 377 kts | 280° |
| 2026-04-26 03:48 | 32.84268 | -114.58676 | 40337 ft | 371 kts | 279° |
| 2026-04-26 03:48 | 32.85063 | -114.61586 | 39847 ft | 371 kts | 279° |
| 2026-04-26 03:49 | 32.85864 | -114.64530 | 39361 ft | 378 kts | 279° |
| 2026-04-26 03:49 | 32.86676 | -114.67527 | 38846 ft | 382 kts | 279° |
| 2026-04-26 03:49 | 32.87300 | -114.70536 | 38334 ft | 378 kts | 274° |
| 2026-04-26 03:49 | 32.87684 | -114.73594 | 37816 ft | 370 kts | 270° |
| 2026-04-26 03:50 | 32.87828 | -114.76621 | 37329 ft | 365 kts | 265° |
| 2026-04-26 03:50 | 32.87773 | -114.79635 | 36858 ft | 366 kts | 263° |
| 2026-04-26 03:50 | 32.87705 | -114.82682 | 36365 ft | 371 kts | 263° |
| 2026-04-26 03:50 | 32.87647 | -114.85761 | 35871 ft | 373 kts | 263° |
| 2026-04-26 03:51 | 32.87581 | -114.88838 | 35378 ft | 372 kts | 263° |
| 2026-04-26 03:51 | 32.87509 | -114.91911 | 34886 ft | 371 kts | 263° |
| 2026-04-26 03:51 | 32.87438 | -114.94979 | 34396 ft | 371 kts | 262° |
| 2026-04-26 03:51 | 32.87368 | -114.98043 | 33909 ft | 371 kts | 262° |
| 2026-04-26 03:52 | 32.87297 | -115.01112 | 33417 ft | 372 kts | 262° |
| 2026-04-26 03:52 | 32.87224 | -115.04202 | 32898 ft | 374 kts | 262° |
| 2026-04-26 03:52 | 32.87152 | -115.07256 | 32414 ft | 375 kts | 262° |
| 2026-04-26 03:52 | 32.87077 | -115.10368 | 31915 ft | 379 kts | 262° |
| 2026-04-26 03:53 | 32.87000 | -115.13514 | 31414 ft | 382 kts | 262° |
| 2026-04-26 03:53 | 32.86924 | -115.16680 | 30909 ft | 383 kts | 262° |
| 2026-04-26 03:53 | 32.86847 | -115.19847 | 30404 ft | 383 kts | 262° |
| 2026-04-26 03:53 | 32.86768 | -115.23015 | 29898 ft | 383 kts | 262° |
| 2026-04-26 03:54 | 32.86688 | -115.26180 | 29359 ft | 381 kts | 262° |
| 2026-04-26 03:54 | 32.86609 | -115.29315 | 28858 ft | 378 kts | 262° |
| 2026-04-26 03:54 | 32.86528 | -115.32426 | 28362 ft | 374 kts | 262° |
| 2026-04-26 03:54 | 32.86293 | -115.35482 | 27874 ft | 367 kts | 257° |
| 2026-04-26 03:55 | 32.85881 | -115.38429 | 27394 ft | 358 kts | 255° |
| 2026-04-26 03:55 | 32.85473 | -115.41316 | 26928 ft | 360 kts | 256° |
| 2026-04-26 03:55 | 32.85067 | -115.44251 | 26455 ft | 360 kts | 256° |
| 2026-04-26 03:55 | 32.84660 | -115.47175 | 25985 ft | 357 kts | 256° |
| 2026-04-26 03:56 | 32.84226 | -115.50074 | 25532 ft | 355 kts | 254° |
| 2026-04-26 03:56 | 32.83752 | -115.52942 | 25102 ft | 353 kts | 254° |
| 2026-04-26 03:56 | 32.83284 | -115.55799 | 24672 ft | 351 kts | 254° |
| 2026-04-26 03:56 | 32.82822 | -115.58647 | 24249 ft | 351 kts | 254° |
| 2026-04-26 03:57 | 32.82358 | -115.61492 | 23817 ft | 350 kts | 254° |
| 2026-04-26 03:57 | 32.81892 | -115.64332 | 23468 ft | 349 kts | 254° |
| 2026-04-26 03:57 | 32.81427 | -115.67162 | 22991 ft | 348 kts | 255° |
| 2026-04-26 03:57 | 32.80966 | -115.69973 | 22565 ft | 345 kts | 255° |
| 2026-04-26 03:58 | 32.80507 | -115.72763 | 22145 ft | 344 kts | 255° |
| 2026-04-26 03:58 | 32.80053 | -115.75517 | 21732 ft | 345 kts | 255° |
| 2026-04-26 03:58 | 32.79591 | -115.78315 | 21309 ft | 345 kts | 255° |
| 2026-04-26 03:58 | 32.79129 | -115.81114 | 20882 ft | 344 kts | 255° |
| 2026-04-26 03:59 | 32.78670 | -115.83899 | 20460 ft | 343 kts | 255° |
| 2026-04-26 03:59 | 32.78372 | -115.86715 | 20033 ft | 345 kts | 260° |
| 2026-04-26 03:59 | 32.78176 | -115.89555 | 19614 ft | 344 kts | 260° |
| 2026-04-26 03:59 | 32.77957 | -115.92389 | 19190 ft | 344 kts | 260° |
| 2026-04-26 04:00 | 32.77739 | -115.95221 | 18728 ft | 344 kts | 260° |
| 2026-04-26 04:00 | 32.77529 | -115.98052 | 18341 ft | 344 kts | 261° |
| 2026-04-26 04:00 | 32.77319 | -116.00883 | 17896 ft | 344 kts | 261° |
| 2026-04-26 04:00 | 32.77111 | -116.03661 | 17487 ft | 340 kts | 261° |
| 2026-04-26 04:01 | 32.76900 | -116.06448 | 17072 ft | 338 kts | 261° |
| 2026-04-26 04:01 | 32.76687 | -116.09230 | 16650 ft | 339 kts | 261° |
| 2026-04-26 04:01 | 32.76475 | -116.12028 | 16218 ft | 340 kts | 261° |
| 2026-04-26 04:01 | 32.76264 | -116.14811 | 15834 ft | 337 kts | 261° |
| 2026-04-26 04:02 | 32.76055 | -116.17560 | 15436 ft | 329 kts | 261° |
| 2026-04-26 04:02 | 32.75857 | -116.20184 | 15046 ft | 308 kts | 260° |
| 2026-04-26 04:02 | 32.75668 | -116.22658 | 14674 ft | 295 kts | 260° |
| 2026-04-26 04:02 | 32.75478 | -116.25066 | 14322 ft | 293 kts | 260° |
| 2026-04-26 04:03 | 32.75288 | -116.27452 | 14004 ft | 294 kts | 261° |
| 2026-04-26 04:03 | 32.75105 | -116.29852 | 13624 ft | 289 kts | 261° |
| 2026-04-26 04:03 | 32.74925 | -116.32217 | 13248 ft | 286 kts | 261° |
| 2026-04-26 04:03 | 32.74743 | -116.34563 | 12899 ft | 286 kts | 261° |
| 2026-04-26 04:04 | 32.74559 | -116.36915 | 12547 ft | 286 kts | 261° |
| 2026-04-26 04:04 | 32.74377 | -116.39253 | 12233 ft | 283 kts | 261° |
| 2026-04-26 04:04 | 32.74197 | -116.41565 | 11885 ft | 280 kts | 261° |
| 2026-04-26 04:04 | 32.74019 | -116.43857 | 11546 ft | 274 kts | 261° |
| 2026-04-26 04:05 | 32.73852 | -116.46010 | 11217 ft | 257 kts | 261° |
| 2026-04-26 04:05 | 32.73690 | -116.48075 | 10910 ft | 248 kts | 260° |
| 2026-04-26 04:05 | 32.73528 | -116.50099 | 10607 ft | 245 kts | 260° |
| 2026-04-26 04:05 | 32.73331 | -116.52112 | 10344 ft | 246 kts | 259° |
| 2026-04-26 04:06 | 32.73133 | -116.54151 | 10041 ft | 251 kts | 259° |
| 2026-04-26 04:06 | 32.72940 | -116.56193 | 9721 ft | 246 kts | 259° |
| 2026-04-26 04:06 | 32.72746 | -116.58208 | 9418 ft | 249 kts | 260° |
| 2026-04-26 04:06 | 32.72541 | -116.60288 | 9114 ft | 257 kts | 261° |
| 2026-04-26 04:07 | 32.72342 | -116.62357 | 8807 ft | 253 kts | 261° |
| 2026-04-26 04:07 | 32.72144 | -116.64425 | 8515 ft | 251 kts | 261° |
| 2026-04-26 04:07 | 32.71956 | -116.66489 | 8210 ft | 253 kts | 263° |
| 2026-04-26 04:07 | 32.71798 | -116.68578 | 7903 ft | 255 kts | 263° |
| 2026-04-26 04:08 | 32.71628 | -116.70669 | 7595 ft | 254 kts | 263° |
| 2026-04-26 04:08 | 32.71463 | -116.72754 | 7289 ft | 254 kts | 264° |
| 2026-04-26 04:08 | 32.71298 | -116.74844 | 6985 ft | 254 kts | 264° |
| 2026-04-26 04:08 | 32.71136 | -116.76907 | 6678 ft | 246 kts | 265° |
| 2026-04-26 04:09 | 32.70995 | -116.78709 | 6411 ft | 237 kts | 265° |
| 2026-04-26 04:09 | 32.70845 | -116.80597 | 6112 ft | 230 kts | 265° |
| 2026-04-26 04:09 | 32.70553 | -116.82436 | 5991 ft | 224 kts | 253° |
| 2026-04-26 04:09 | 32.70014 | -116.84135 | 5979 ft | 212 kts | 251° |
| 2026-04-26 04:10 | 32.69530 | -116.85693 | 5984 ft | 191 kts | 252° |
| 2026-04-26 04:10 | 32.69092 | -116.87112 | 5979 ft | 174 kts | 252° |
| 2026-04-26 04:10 | 32.68682 | -116.88463 | 5989 ft | 183 kts | 253° |
| 2026-04-26 04:10 | 32.68249 | -116.89970 | 5945 ft | 195 kts | 251° |
| 2026-04-26 04:11 | 32.67794 | -116.91480 | 5611 ft | 193 kts | 251° |
| 2026-04-26 04:11 | 32.67430 | -116.92907 | 5326 ft | 174 kts | 260° |
| 2026-04-26 04:11 | 32.67404 | -116.94300 | 4983 ft | 165 kts | 275° |
| 2026-04-26 04:11 | 32.67666 | -116.95605 | 4637 ft | 161 kts | 285° |
| 2026-04-26 04:12 | 32.67980 | -116.96861 | 4297 ft | 157 kts | 284° |
| 2026-04-26 04:12 | 32.68282 | -116.98116 | 3960 ft | 158 kts | 284° |
| 2026-04-26 04:12 | 32.68589 | -116.99371 | 3641 ft | 158 kts | 283° |
| 2026-04-26 04:12 | 32.68894 | -117.00623 | 3315 ft | 157 kts | 283° |
| 2026-04-26 04:13 | 32.69195 | -117.01853 | 3027 ft | 152 kts | 283° |
| 2026-04-26 04:13 | 32.69481 | -117.03026 | 2834 ft | 144 kts | 284° |
| 2026-04-26 04:13 | 32.69751 | -117.04131 | 2641 ft | 133 kts | 284° |
| 2026-04-26 04:13 | 32.69996 | -117.05138 | 2475 ft | 129 kts | 283° |
| 2026-04-26 04:14 | 32.70241 | -117.06144 | 2313 ft | 122 kts | 284° |
| 2026-04-26 04:14 | 32.70472 | -117.07082 | 2157 ft | 114 kts | 283° |
| 2026-04-26 04:14 | 32.70679 | -117.07928 | 2097 ft | 111 kts | 283° |
| 2026-04-26 04:14 | 32.70901 | -117.08851 | 1944 ft | 117 kts | 283° |
| 2026-04-26 04:15 | 32.71125 | -117.09775 | 1752 ft | 116 kts | 283° |
| 2026-04-26 04:15 | 32.71348 | -117.10693 | 1560 ft | 116 kts | 283° |
| 2026-04-26 04:15 | 32.71581 | -117.11620 | 1384 ft | 121 kts | 284° |
| 2026-04-26 04:15 | 32.71793 | -117.12600 | 1188 ft | 121 kts | 282° |
| 2026-04-26 04:16 | 32.72018 | -117.13559 | 992 ft | 120 kts | 284° |
| 2026-04-26 04:16 | 32.72252 | -117.14505 | 760 ft | 122 kts | 284° |
| 2026-04-26 04:16 | 32.72495 | -117.15461 | 630 ft | 120 kts | 284° |
| 2026-04-26 04:16 | 32.72719 | -117.16408 | 418 ft | 119 kts | 284° |
| 2026-04-26 04:17 | 32.72950 | -117.17346 | 201 ft | 115 kts | 284° |
| 2026-04-26 04:17 | 32.73176 | -117.18233 | 48 ft | 108 kts | 282° |
| 2026-04-26 04:17 | 32.73345 | -117.18983 | 20 ft | 60 kts | 285° |
| 2026-04-26 04:17 | 32.73428 | -117.19293 | 19 ft | 31 kts | 289° |
| 2026-04-26 04:18 | 32.73430 | -117.19469 | 21 ft | 0 kts | 244° |
| 2026-04-26 04:18 | 32.73424 | -117.19480 | 20 ft | 0 kts | 232° |
| 2026-04-26 04:18 | 32.73423 | -117.19482 | 20 ft | 4 kts | 230° |
| 2026-04-26 04:19 | 32.73371 | -117.19455 | 20 ft | 15 kts | 108° |
| 2026-04-26 04:19 | 32.73330 | -117.19287 | 19 ft | 26 kts | 106° |
| 2026-04-26 04:19 | 32.73315 | -117.19186 | 19 ft | 8 kts | 72° |
| 2026-04-26 04:19 | 32.73320 | -117.19178 | 21 ft | 0 kts | 47° |
| 2026-04-26 04:23 | 32.73321 | -117.19177 | 19 ft | 0 kts | 47° |
| 2026-04-26 04:25 | 32.73332 | -117.19166 | 21 ft | 9 kts | 32° |
| 2026-04-26 04:25 | 32.73415 | -117.19107 | 19 ft | 18 kts | 36° |
| 2026-04-26 04:25 | 32.73476 | -117.18987 | 19 ft | 18 kts | 106° |
| 2026-04-26 04:25 | 32.73440 | -117.18841 | 20 ft | 19 kts | 105° |
| 2026-04-26 04:26 | 32.73403 | -117.18690 | 24 ft | 19 kts | 107° |
| 2026-04-26 04:26 | 32.73367 | -117.18537 | 24 ft | 19 kts | 106° |
| 2026-04-26 04:26 | 32.73327 | -117.18373 | 25 ft | 22 kts | 106° |
| 2026-04-26 04:26 | 32.73282 | -117.18188 | 24 ft | 24 kts | 105° |
| 2026-04-26 04:27 | 32.73245 | -117.18020 | 24 ft | 16 kts | 85° |
| 2026-04-26 04:27 | 32.73331 | -117.17958 | 23 ft | 15 kts | 12° |
| 2026-04-26 04:27 | 32.73394 | -117.17917 | 25 ft | 6 kts | 8° |
| 2026-04-26 04:27 | 32.73428 | -117.17941 | 24 ft | 6 kts | 294° |
| 2026-04-26 04:28 | 32.73436 | -117.17960 | 23 ft | 0 kts | 295° |